Time;durP1;ratioP1;P1;durP2;ratioP2;P2;SDS_P1;SDS_P2;PMS_P1;PMS_P2;Temp;Humidity;BMP_temperature;BMP_pressure;BME280_temperature;BME280_humidity;BME280_pressure;Samples;Min_cycle;Max_cycle;Signal;HPM_P1;HPM_P2
2023/07/10 06:22:10;;;;;;;;;5.00;5.00;;;;;22.86;56.13;101980.31;5070255;27;45913;-75
2023/07/10 06:24:36;;;;;;;;;7.00;6.00;;;;;23.00;55.69;101977.25;5067555;28;45615;-74
2023/07/10 06:27:02;;;;;;;;;5.33;4.00;;;;;23.17;55.00;101978.47;5065907;28;45466;-74
2023/07/10 06:29:28;;;;;;;;;4.00;4.00;;;;;23.35;54.93;101986.00;5061153;28;45454;-73
2023/07/10 06:31:54;;;;;;;;;4.67;4.67;;;;;23.53;54.64;101979.91;5067998;28;46711;-76
2023/07/10 06:34:19;;;;;;;;;5.00;5.00;;;;;23.68;54.60;101978.53;5066957;27;48893;-75
2023/07/10 06:36:44;;;;;;;;;4.00;3.33;;;;;23.82;53.21;101973.66;5068123;28;45581;-75
2023/07/10 06:39:10;;;;;;;;;7.00;5.33;;;;;23.94;53.42;101977.97;5066622;28;45411;-76
2023/07/10 06:41:36;;;;;;;;;9.67;6.67;;;;;24.06;53.34;101972.41;5068318;27;45764;-74
2023/07/10 06:44:01;;;;;;;;;6.33;6.33;;;;;24.19;53.43;101966.72;5067338;28;45529;-74
2023/07/10 06:46:26;;;;;;;;;5.00;5.00;;;;;24.27;53.04;101964.16;5060359;27;45447;-75
2023/07/10 06:48:52;;;;;;;;;4.00;4.00;;;;;24.39;52.47;101974.88;5061623;27;45743;-74
2023/07/10 06:51:17;;;;;;;;;3.33;3.33;;;;;24.46;52.74;101971.44;5066764;27;46106;-75
2023/07/10 06:53:42;;;;;;;;;4.33;4.33;;;;;24.55;52.54;101977.84;5060734;27;45399;-75
2023/07/10 06:56:08;;;;;;;;;4.33;4.33;;;;;24.62;52.43;101972.69;5069056;27;45643;-74
2023/07/10 06:58:34;;;;;;;;;6.33;4.67;;;;;24.69;52.07;101971.06;5067248;27;45733;-74
2023/07/10 07:01:00;;;;;;;;;5.33;5.33;;;;;24.75;52.01;101977.78;5055282;28;46194;-74
2023/07/10 07:03:26;;;;;;;;;6.33;5.00;;;;;24.81;51.71;101979.06;5066944;28;45515;-74
2023/07/10 07:05:53;;;;;;;;;5.33;4.00;;;;;24.87;51.70;101978.50;5066335;28;45452;-74
2023/07/10 07:08:19;;;;;;;;;4.00;4.00;;;;;24.92;51.10;101968.03;5066733;28;45426;-74
2023/07/10 07:10:46;;;;;;;;;4.33;3.67;;;;;24.98;51.14;101978.31;5066989;28;45574;-74
2023/07/10 07:13:12;;;;;;;;;4.67;4.67;;;;;25.04;51.09;101970.56;5053901;27;45432;-74
2023/07/10 07:15:37;;;;;;;;;7.00;4.33;;;;;25.09;50.80;101971.84;5067572;27;45458;-76
2023/07/10 07:18:03;;;;;;;;;4.33;3.00;;;;;25.09;50.22;101969.13;5065182;28;45447;-79
2023/07/10 07:20:30;;;;;;;;;3.33;3.33;;;;;25.16;50.14;101973.94;5066657;27;46228;-78
2023/07/10 07:22:55;;;;;;;;;6.33;5.00;;;;;25.19;49.64;101971.81;5067589;27;45567;-77
2023/07/10 07:25:21;;;;;;;;;7.67;4.67;;;;;25.19;49.69;101958.22;5068784;28;45719;-80
2023/07/10 07:27:46;;;;;;;;;4.00;4.00;;;;;25.23;49.09;101967.78;5066748;28;45538;-78
2023/07/10 07:30:12;;;;;;;;;5.00;5.00;;;;;25.29;49.26;101971.75;5064372;28;56960;-76
2023/07/10 07:32:37;;;;;;;;;6.33;5.00;;;;;25.30;49.05;101967.19;5053241;27;45488;-78
2023/07/10 07:35:03;;;;;;;;;3.00;3.00;;;;;25.31;49.13;101967.03;5049467;28;46253;-78
2023/07/10 07:37:28;;;;;;;;;5.33;5.33;;;;;25.35;48.95;101957.56;5053772;28;45550;-78
2023/07/10 07:39:58;;;;;;;;;6.00;5.67;;;;;25.39;49.00;101964.41;5053882;28;46312;-77
2023/07/10 07:42:23;;;;;;;;;4.00;4.00;;;;;25.44;49.10;101960.38;5053616;28;45399;-76
2023/07/10 07:44:49;;;;;;;;;5.67;4.67;;;;;25.45;48.41;101954.78;5052882;28;45977;-76
2023/07/10 07:47:15;;;;;;;;;3.33;3.33;;;;;25.48;48.13;101951.78;5053834;28;45619;-78
2023/07/10 07:49:40;;;;;;;;;6.33;3.33;;;;;25.50;48.23;101957.91;5053903;28;45454;-76
2023/07/10 07:52:06;;;;;;;;;3.00;3.00;;;;;25.53;48.09;101957.59;5053488;28;55876;-76
2023/07/10 07:54:32;;;;;;;;;3.00;3.00;;;;;25.56;47.85;101955.59;5054292;28;45521;-76
2023/07/10 07:56:57;;;;;;;;;5.33;2.67;;;;;25.61;47.62;101961.44;5049684;28;45515;-75
2023/07/10 07:59:22;;;;;;;;;5.00;4.00;;;;;25.62;47.75;101953.13;5047125;28;46053;-75
2023/07/10 08:01:49;;;;;;;;;4.00;3.00;;;;;25.68;47.83;101950.81;5052304;28;45580;-75
2023/07/10 08:04:15;;;;;;;;;4.33;3.00;;;;;25.70;47.90;101952.34;5052662;28;45896;-75
2023/07/10 08:06:41;;;;;;;;;2.67;2.00;;;;;25.73;47.44;101941.19;5048878;28;46023;-75
2023/07/10 08:09:06;;;;;;;;;2.67;2.67;;;;;25.75;47.40;101941.03;5050565;28;45985;-78
2023/07/10 08:11:31;;;;;;;;;2.67;2.67;;;;;25.74;47.16;101939.31;5052645;28;45723;-77
